sensor_id;sensor_type;location;lat;lon;timestamp;P1;durP1;ratioP1;P2;durP2;ratioP2
37791;SDS011;29527;55.766;37.570;2023-04-25T00:02:22;15.30;;;6.32;;
37791;SDS011;29527;55.766;37.570;2023-04-25T00:04:47;15.52;;;5.97;;
37791;SDS011;29527;55.766;37.570;2023-04-25T00:07:17;13.75;;;6.20;;
37791;SDS011;29527;55.766;37.570;2023-04-25T00:09:42;17.80;;;6.43;;
37791;SDS011;29527;55.766;37.570;2023-04-25T00:12:08;11.85;;;5.82;;
37791;SDS011;29527;55.766;37.570;2023-04-25T00:14:34;18.88;;;6.28;;
37791;SDS011;29527;55.766;37.570;2023-04-25T00:17:00;16.70;;;5.70;;
37791;SDS011;29527;55.766;37.570;2023-04-25T00:19:26;10.30;;;5.75;;
37791;SDS011;29527;55.766;37.570;2023-04-25T00:21:54;12.15;;;6.60;;
37791;SDS011;29527;55.766;37.570;2023-04-25T00:24:20;19.50;;;6.38;;
37791;SDS011;29527;55.766;37.570;2023-04-25T00:26:46;15.68;;;6.03;;
37791;SDS011;29527;55.766;37.570;2023-04-25T00:29:11;11.63;;;6.25;;
37791;SDS011;29527;55.766;37.570;2023-04-25T00:31:37;14.70;;;6.57;;
37791;SDS011;29527;55.766;37.570;2023-04-25T00:34:03;14.07;;;6.35;;
37791;SDS011;29527;55.766;37.570;2023-04-25T00:36:28;12.65;;;6.70;;
37791;SDS011;29527;55.766;37.570;2023-04-25T00:38:54;13.90;;;6.45;;
37791;SDS011;29527;55.766;37.570;2023-04-25T00:41:20;17.35;;;5.90;;
37791;SDS011;29527;55.766;37.570;2023-04-25T00:43:46;12.38;;;5.55;;
37791;SDS011;29527;55.766;37.570;2023-04-25T00:46:13;12.52;;;6.15;;
37791;SDS011;29527;55.766;37.570;2023-04-25T00:48:38;11.18;;;5.72;;
37791;SDS011;29527;55.766;37.570;2023-04-25T00:51:04;9.93;;;6.03;;
37791;SDS011;29527;55.766;37.570;2023-04-25T00:53:30;14.10;;;5.13;;
37791;SDS011;29527;55.766;37.570;2023-04-25T00:55:57;7.95;;;4.30;;
37791;SDS011;29527;55.766;37.570;2023-04-25T00:58:23;12.68;;;4.93;;
37791;SDS011;29527;55.766;37.570;2023-04-25T01:00:49;9.93;;;4.63;;
37791;SDS011;29527;55.766;37.570;2023-04-25T01:03:17;8.60;;;4.60;;
37791;SDS011;29527;55.766;37.570;2023-04-25T01:05:44;11.00;;;5.70;;
37791;SDS011;29527;55.766;37.570;2023-04-25T01:08:10;13.82;;;6.03;;
37791;SDS011;29527;55.766;37.570;2023-04-25T01:10:36;9.55;;;5.30;;
37791;SDS011;29527;55.766;37.570;2023-04-25T01:13:02;15.00;;;6.50;;
37791;SDS011;29527;55.766;37.570;2023-04-25T01:15:28;14.57;;;6.18;;
37791;SDS011;29527;55.766;37.570;2023-04-25T01:17:54;10.77;;;6.35;;
37791;SDS011;29527;55.766;37.570;2023-04-25T01:20:23;13.50;;;6.90;;
37791;SDS011;29527;55.766;37.570;2023-04-25T01:22:52;11.35;;;6.35;;
37791;SDS011;29527;55.766;37.570;2023-04-25T01:25:19;18.15;;;7.22;;
37791;SDS011;29527;55.766;37.570;2023-04-25T01:27:45;14.63;;;6.38;;
37791;SDS011;29527;55.766;37.570;2023-04-25T01:30:11;15.00;;;7.35;;
37791;SDS011;29527;55.766;37.570;2023-04-25T01:32:38;16.27;;;6.75;;
37791;SDS011;29527;55.766;37.570;2023-04-25T01:35:04;14.75;;;6.68;;
37791;SDS011;29527;55.766;37.570;2023-04-25T01:37:36;14.95;;;7.22;;
37791;SDS011;29527;55.766;37.570;2023-04-25T01:40:02;14.63;;;7.13;;
37791;SDS011;29527;55.766;37.570;2023-04-25T01:42:31;14.43;;;6.70;;
37791;SDS011;29527;55.766;37.570;2023-04-25T01:44:57;11.82;;;6.30;;
37791;SDS011;29527;55.766;37.570;2023-04-25T01:47:23;19.27;;;7.10;;
37791;SDS011;29527;55.766;37.570;2023-04-25T01:49:48;17.77;;;6.95;;
37791;SDS011;29527;55.766;37.570;2023-04-25T01:52:14;14.32;;;6.47;;
37791;SDS011;29527;55.766;37.570;2023-04-25T01:54:40;15.13;;;6.90;;
37791;SDS011;29527;55.766;37.570;2023-04-25T01:57:09;13.18;;;6.72;;
37791;SDS011;29527;55.766;37.570;2023-04-25T01:59:35;15.13;;;6.88;;
37791;SDS011;29527;55.766;37.570;2023-04-25T02:02:01;11.07;;;6.40;;
37791;SDS011;29527;55.766;37.570;2023-04-25T02:04:31;13.98;;;6.75;;
37791;SDS011;29527;55.766;37.570;2023-04-25T02:06:57;12.77;;;6.47;;
37791;SDS011;29527;55.766;37.570;2023-04-25T02:09:23;14.68;;;6.53;;
37791;SDS011;29527;55.766;37.570;2023-04-25T02:11:49;11.10;;;6.55;;
37791;SDS011;29527;55.766;37.570;2023-04-25T02:14:14;11.73;;;6.95;;
37791;SDS011;29527;55.766;37.570;2023-04-25T02:16:40;14.63;;;6.40;;
37791;SDS011;29527;55.766;37.570;2023-04-25T02:19:06;12.07;;;6.40;;
37791;SDS011;29527;55.766;37.570;2023-04-25T02:21:31;19.50;;;6.78;;
37791;SDS011;29527;55.766;37.570;2023-04-25T02:23:57;17.33;;;6.25;;
37791;SDS011;29527;55.766;37.570;2023-04-25T02:26:23;15.43;;;7.15;;
37791;SDS011;29527;55.766;37.570;2023-04-25T02:28:51;14.25;;;6.93;;
37791;SDS011;29527;55.766;37.570;2023-04-25T02:31:17;14.55;;;6.53;;
37791;SDS011;29527;55.766;37.570;2023-04-25T02:33:42;10.05;;;5.80;;
37791;SDS011;29527;55.766;37.570;2023-04-25T02:36:08;20.00;;;6.70;;
37791;SDS011;29527;55.766;37.570;2023-04-25T02:38:34;9.15;;;6.20;;
37791;SDS011;29527;55.766;37.570;2023-04-25T02:40:59;17.50;;;6.47;;
37791;SDS011;29527;55.766;37.570;2023-04-25T02:43:25;12.88;;;6.25;;
37791;SDS011;29527;55.766;37.570;2023-04-25T02:45:51;13.43;;;5.55;;
37791;SDS011;29527;55.766;37.570;2023-04-25T02:48:16;18.10;;;6.53;;
37791;SDS011;29527;55.766;37.570;2023-04-25T02:50:42;15.00;;;6.53;;
37791;SDS011;29527;55.766;37.570;2023-04-25T02:53:07;13.07;;;6.88;;
37791;SDS011;29527;55.766;37.570;2023-04-25T02:55:33;11.50;;;6.03;;
37791;SDS011;29527;55.766;37.570;2023-04-25T02:57:58;12.57;;;6.05;;
37791;SDS011;29527;55.766;37.570;2023-04-25T03:00:24;12.63;;;6.05;;
37791;SDS011;29527;55.766;37.570;2023-04-25T03:02:50;10.18;;;5.80;;
37791;SDS011;29527;55.766;37.570;2023-04-25T03:05:16;13.45;;;6.13;;
37791;SDS011;29527;55.766;37.570;2023-04-25T03:07:42;13.57;;;6.03;;
37791;SDS011;29527;55.766;37.570;2023-04-25T03:10:08;12.98;;;5.78;;
37791;SDS011;29527;55.766;37.570;2023-04-25T03:12:34;13.52;;;6.43;;
37791;SDS011;29527;55.766;37.570;2023-04-25T03:15:00;13.57;;;6.15;;
37791;SDS011;29527;55.766;37.570;2023-04-25T03:17:25;15.23;;;6.60;;
37791;SDS011;29527;55.766;37.570;2023-04-25T03:19:51;12.88;;;6.57;;
37791;SDS011;29527;55.766;37.570;2023-04-25T03:22:17;11.25;;;6.18;;
37791;SDS011;29527;55.766;37.570;2023-04-25T03:24:42;16.90;;;6.38;;
37791;SDS011;29527;55.766;37.570;2023-04-25T03:27:08;19.35;;;6.20;;
37791;SDS011;29527;55.766;37.570;2023-04-25T03:29:33;14.75;;;6.03;;
37791;SDS011;29527;55.766;37.570;2023-04-25T03:31:59;12.02;;;5.68;;
37791;SDS011;29527;55.766;37.570;2023-04-25T03:34:24;13.32;;;6.03;;
37791;SDS011;29527;55.766;37.570;2023-04-25T03:36:51;19.00;;;6.68;;
37791;SDS011;29527;55.766;37.570;2023-04-25T03:39:16;14.82;;;6.22;;
37791;SDS011;29527;55.766;37.570;2023-04-25T03:41:42;16.08;;;6.68;;
37791;SDS011;29527;55.766;37.570;2023-04-25T03:44:07;13.82;;;7.22;;
37791;SDS011;29527;55.766;37.570;2023-04-25T03:46:33;15.30;;;6.60;;
37791;SDS011;29527;55.766;37.570;2023-04-25T03:48:58;12.07;;;7.32;;
37791;SDS011;29527;55.766;37.570;2023-04-25T03:51:24;16.98;;;7.18;;
37791;SDS011;29527;55.766;37.570;2023-04-25T03:53:51;19.92;;;7.57;;
37791;SDS011;29527;55.766;37.570;2023-04-25T03:56:17;15.18;;;7.93;;
37791;SDS011;29527;55.766;37.570;2023-04-25T03:58:42;14.98;;;7.75;;
37791;SDS011;29527;55.766;37.570;2023-04-25T04:01:08;19.20;;;8.23;;
37791;SDS011;29527;55.766;37.570;2023-04-25T04:03:34;23.77;;;8.13;;
37791;SDS011;29527;55.766;37.570;2023-04-25T04:06:01;19.30;;;9.38;;
37791;SDS011;29527;55.766;37.570;2023-04-25T04:08:29;18.50;;;8.77;;
37791;SDS011;29527;55.766;37.570;2023-04-25T04:10:55;20.95;;;10.00;;
37791;SDS011;29527;55.766;37.570;2023-04-25T04:13:21;23.88;;;9.40;;
37791;SDS011;29527;55.766;37.570;2023-04-25T04:15:47;21.88;;;9.48;;
37791;SDS011;29527;55.766;37.570;2023-04-25T04:18:12;18.58;;;10.45;;
37791;SDS011;29527;55.766;37.570;2023-04-25T04:20:38;22.88;;;9.55;;
37791;SDS011;29527;55.766;37.570;2023-04-25T04:23:03;21.25;;;10.13;;
37791;SDS011;29527;55.766;37.570;2023-04-25T04:25:30;15.18;;;9.95;;
37791;SDS011;29527;55.766;37.570;2023-04-25T04:27:56;15.65;;;9.38;;
37791;SDS011;29527;55.766;37.570;2023-04-25T04:30:23;18.85;;;9.35;;
37791;SDS011;29527;55.766;37.570;2023-04-25T04:32:50;21.70;;;10.27;;
37791;SDS011;29527;55.766;37.570;2023-04-25T04:35:16;19.05;;;10.20;;
37791;SDS011;29527;55.766;37.570;2023-04-25T04:37:42;21.67;;;10.18;;
37791;SDS011;29527;55.766;37.570;2023-04-25T04:40:09;13.90;;;9.55;;
37791;SDS011;29527;55.766;37.570;2023-04-25T04:42:35;21.52;;;9.95;;
37791;SDS011;29527;55.766;37.570;2023-04-25T04:45:01;18.30;;;9.57;;
37791;SDS011;29527;55.766;37.570;2023-04-25T04:47:29;16.48;;;9.80;;
37791;SDS011;29527;55.766;37.570;2023-04-25T04:49:56;21.05;;;10.10;;
37791;SDS011;29527;55.766;37.570;2023-04-25T04:52:22;22.92;;;9.30;;
37791;SDS011;29527;55.766;37.570;2023-04-25T04:54:48;21.00;;;9.60;;
37791;SDS011;29527;55.766;37.570;2023-04-25T04:57:13;17.73;;;9.40;;
37791;SDS011;29527;55.766;37.570;2023-04-25T04:59:39;19.02;;;10.02;;
37791;SDS011;29527;55.766;37.570;2023-04-25T05:02:04;22.42;;;9.23;;
37791;SDS011;29527;55.766;37.570;2023-04-25T05:04:30;16.90;;;9.25;;
37791;SDS011;29527;55.766;37.570;2023-04-25T05:06:55;12.85;;;8.43;;
37791;SDS011;29527;55.766;37.570;2023-04-25T05:09:21;11.73;;;7.82;;
37791;SDS011;29527;55.766;37.570;2023-04-25T05:11:50;19.10;;;8.80;;
37791;SDS011;29527;55.766;37.570;2023-04-25T05:14:16;16.27;;;8.13;;
37791;SDS011;29527;55.766;37.570;2023-04-25T05:16:43;16.83;;;8.15;;
37791;SDS011;29527;55.766;37.570;2023-04-25T05:19:08;17.67;;;8.38;;
37791;SDS011;29527;55.766;37.570;2023-04-25T05:21:34;19.55;;;8.30;;
37791;SDS011;29527;55.766;37.570;2023-04-25T05:24:00;15.30;;;7.75;;
37791;SDS011;29527;55.766;37.570;2023-04-25T05:26:26;20.33;;;7.93;;
37791;SDS011;29527;55.766;37.570;2023-04-25T05:28:56;14.10;;;7.65;;
37791;SDS011;29527;55.766;37.570;2023-04-25T05:31:22;17.17;;;7.45;;
37791;SDS011;29527;55.766;37.570;2023-04-25T05:33:48;13.30;;;8.05;;
37791;SDS011;29527;55.766;37.570;2023-04-25T05:36:13;14.23;;;6.88;;
37791;SDS011;29527;55.766;37.570;2023-04-25T05:38:39;16.63;;;7.18;;
37791;SDS011;29527;55.766;37.570;2023-04-25T05:41:04;14.23;;;7.45;;
37791;SDS011;29527;55.766;37.570;2023-04-25T05:43:30;12.70;;;7.25;;
37791;SDS011;29527;55.766;37.570;2023-04-25T05:45:55;14.35;;;6.60;;
37791;SDS011;29527;55.766;37.570;2023-04-25T05:48:21;13.93;;;5.93;;
37791;SDS011;29527;55.766;37.570;2023-04-25T05:50:46;14.00;;;6.45;;
37791;SDS011;29527;55.766;37.570;2023-04-25T05:53:12;10.63;;;6.65;;
37791;SDS011;29527;55.766;37.570;2023-04-25T05:55:38;17.40;;;7.65;;
37791;SDS011;29527;55.766;37.570;2023-04-25T05:58:05;12.40;;;6.93;;
37791;SDS011;29527;55.766;37.570;2023-04-25T06:00:31;12.35;;;7.38;;
37791;SDS011;29527;55.766;37.570;2023-04-25T06:02:56;14.68;;;8.02;;
37791;SDS011;29527;55.766;37.570;2023-04-25T06:05:25;17.60;;;7.82;;
37791;SDS011;29527;55.766;37.570;2023-04-25T06:07:50;13.98;;;7.05;;
37791;SDS011;29527;55.766;37.570;2023-04-25T06:10:16;17.33;;;7.18;;
37791;SDS011;29527;55.766;37.570;2023-04-25T06:12:41;18.73;;;6.70;;
37791;SDS011;29527;55.766;37.570;2023-04-25T06:15:07;12.63;;;6.53;;
37791;SDS011;29527;55.766;37.570;2023-04-25T06:17:33;15.07;;;7.20;;
37791;SDS011;29527;55.766;37.570;2023-04-25T06:19:58;11.68;;;6.72;;
37791;SDS011;29527;55.766;37.570;2023-04-25T06:22:24;9.85;;;5.82;;
37791;SDS011;29527;55.766;37.570;2023-04-25T06:24:50;15.60;;;6.22;;
37791;SDS011;29527;55.766;37.570;2023-04-25T06:27:15;10.35;;;5.70;;
37791;SDS011;29527;55.766;37.570;2023-04-25T06:29:41;10.57;;;5.28;;
37791;SDS011;29527;55.766;37.570;2023-04-25T06:32:06;11.38;;;5.80;;
37791;SDS011;29527;55.766;37.570;2023-04-25T06:34:32;6.72;;;4.78;;
37791;SDS011;29527;55.766;37.570;2023-04-25T06:36:57;8.65;;;4.82;;
37791;SDS011;29527;55.766;37.570;2023-04-25T06:39:23;8.80;;;5.10;;
37791;SDS011;29527;55.766;37.570;2023-04-25T06:41:49;7.63;;;4.32;;
37791;SDS011;29527;55.766;37.570;2023-04-25T06:44:15;7.55;;;4.72;;
37791;SDS011;29527;55.766;37.570;2023-04-25T06:46:40;7.03;;;4.90;;
37791;SDS011;29527;55.766;37.570;2023-04-25T06:49:06;7.93;;;4.55;;
37791;SDS011;29527;55.766;37.570;2023-04-25T06:51:32;11.95;;;5.90;;
37791;SDS011;29527;55.766;37.570;2023-04-25T06:53:57;10.65;;;5.90;;
37791;SDS011;29527;55.766;37.570;2023-04-25T06:56:23;12.30;;;6.55;;
37791;SDS011;29527;55.766;37.570;2023-04-25T06:58:49;14.15;;;6.40;;
37791;SDS011;29527;55.766;37.570;2023-04-25T07:01:14;13.32;;;6.60;;
37791;SDS011;29527;55.766;37.570;2023-04-25T07:03:40;12.70;;;5.35;;
37791;SDS011;29527;55.766;37.570;2023-04-25T07:06:06;9.95;;;5.10;;
37791;SDS011;29527;55.766;37.570;2023-04-25T07:08:31;9.73;;;5.40;;
37791;SDS011;29527;55.766;37.570;2023-04-25T07:10:57;16.98;;;5.80;;
37791;SDS011;29527;55.766;37.570;2023-04-25T07:13:23;9.27;;;5.95;;
37791;SDS011;29527;55.766;37.570;2023-04-25T07:15:48;14.43;;;6.15;;
37791;SDS011;29527;55.766;37.570;2023-04-25T07:18:14;9.90;;;5.95;;
37791;SDS011;29527;55.766;37.570;2023-04-25T07:20:40;14.45;;;7.05;;
37791;SDS011;29527;55.766;37.570;2023-04-25T07:23:06;14.07;;;6.60;;
37791;SDS011;29527;55.766;37.570;2023-04-25T07:25:31;14.60;;;7.07;;
37791;SDS011;29527;55.766;37.570;2023-04-25T07:27:57;10.90;;;6.72;;
37791;SDS011;29527;55.766;37.570;2023-04-25T07:30:22;13.13;;;6.53;;
37791;SDS011;29527;55.766;37.570;2023-04-25T07:32:48;9.00;;;5.97;;
37791;SDS011;29527;55.766;37.570;2023-04-25T07:35:15;9.85;;;5.50;;
37791;SDS011;29527;55.766;37.570;2023-04-25T07:37:41;14.02;;;5.32;;
37791;SDS011;29527;55.766;37.570;2023-04-25T07:40:07;11.27;;;5.60;;
37791;SDS011;29527;55.766;37.570;2023-04-25T07:42:34;11.30;;;6.50;;
37791;SDS011;29527;55.766;37.570;2023-04-25T07:45:00;10.93;;;5.28;;
37791;SDS011;29527;55.766;37.570;2023-04-25T07:47:26;13.55;;;5.32;;
37791;SDS011;29527;55.766;37.570;2023-04-25T07:49:52;12.13;;;5.72;;
37791;SDS011;29527;55.766;37.570;2023-04-25T07:52:17;11.88;;;5.53;;
37791;SDS011;29527;55.766;37.570;2023-04-25T07:54:43;15.85;;;5.60;;
37791;SDS011;29527;55.766;37.570;2023-04-25T07:57:08;13.85;;;6.07;;
37791;SDS011;29527;55.766;37.570;2023-04-25T07:59:34;12.90;;;5.80;;
37791;SDS011;29527;55.766;37.570;2023-04-25T08:02:00;9.20;;;5.20;;
37791;SDS011;29527;55.766;37.570;2023-04-25T08:04:26;13.30;;;5.32;;
37791;SDS011;29527;55.766;37.570;2023-04-25T08:06:52;15.68;;;5.07;;
37791;SDS011;29527;55.766;37.570;2023-04-25T08:09:19;9.85;;;4.85;;
37791;SDS011;29527;55.766;37.570;2023-04-25T08:11:44;15.70;;;5.97;;
37791;SDS011;29527;55.766;37.570;2023-04-25T08:14:10;13.50;;;5.18;;
37791;SDS011;29527;55.766;37.570;2023-04-25T08:16:36;15.98;;;5.82;;
37791;SDS011;29527;55.766;37.570;2023-04-25T08:19:02;13.70;;;5.40;;
37791;SDS011;29527;55.766;37.570;2023-04-25T08:21:28;15.88;;;5.60;;
37791;SDS011;29527;55.766;37.570;2023-04-25T08:23:53;19.50;;;4.93;;
37791;SDS011;29527;55.766;37.570;2023-04-25T08:26:19;16.65;;;4.95;;
37791;SDS011;29527;55.766;37.570;2023-04-25T08:28:45;15.57;;;5.20;;
37791;SDS011;29527;55.766;37.570;2023-04-25T08:31:11;15.68;;;5.20;;
37791;SDS011;29527;55.766;37.570;2023-04-25T08:33:37;14.18;;;4.82;;
37791;SDS011;29527;55.766;37.570;2023-04-25T08:36:02;20.10;;;5.47;;
37791;SDS011;29527;55.766;37.570;2023-04-25T08:38:28;13.55;;;5.50;;
37791;SDS011;29527;55.766;37.570;2023-04-25T08:40:54;15.00;;;4.50;;
37791;SDS011;29527;55.766;37.570;2023-04-25T08:43:20;9.85;;;5.03;;
37791;SDS011;29527;55.766;37.570;2023-04-25T08:45:46;12.23;;;4.72;;
37791;SDS011;29527;55.766;37.570;2023-04-25T08:48:13;13.15;;;5.03;;
37791;SDS011;29527;55.766;37.570;2023-04-25T08:50:49;8.27;;;4.60;;
37791;SDS011;29527;55.766;37.570;2023-04-25T08:53:26;8.13;;;4.55;;
37791;SDS011;29527;55.766;37.570;2023-04-25T08:55:53;11.73;;;4.68;;
37791;SDS011;29527;55.766;37.570;2023-04-25T08:58:20;7.93;;;4.20;;
37791;SDS011;29527;55.766;37.570;2023-04-25T09:00:47;13.02;;;4.28;;
37791;SDS011;29527;55.766;37.570;2023-04-25T09:03:14;11.98;;;3.70;;
37791;SDS011;29527;55.766;37.570;2023-04-25T09:05:40;12.73;;;4.40;;
37791;SDS011;29527;55.766;37.570;2023-04-25T09:08:06;6.47;;;3.90;;
37791;SDS011;29527;55.766;37.570;2023-04-25T09:10:32;7.05;;;3.70;;
37791;SDS011;29527;55.766;37.570;2023-04-25T09:15:47;7.78;;;3.95;;
37791;SDS011;29527;55.766;37.570;2023-04-25T09:18:13;7.88;;;3.85;;
37791;SDS011;29527;55.766;37.570;2023-04-25T09:20:47;10.40;;;4.30;;
37791;SDS011;29527;55.766;37.570;2023-04-25T09:23:14;7.22;;;3.92;;
37791;SDS011;29527;55.766;37.570;2023-04-25T09:25:39;10.82;;;4.13;;
37791;SDS011;29527;55.766;37.570;2023-04-25T09:28:05;9.88;;;4.32;;
37791;SDS011;29527;55.766;37.570;2023-04-25T09:30:33;13.48;;;4.53;;
37791;SDS011;29527;55.766;37.570;2023-04-25T09:35:35;12.65;;;4.10;;
37791;SDS011;29527;55.766;37.570;2023-04-25T09:38:11;7.75;;;4.80;;
37791;SDS011;29527;55.766;37.570;2023-04-25T09:40:42;8.00;;;5.13;;
37791;SDS011;29527;55.766;37.570;2023-04-25T09:43:09;10.73;;;5.75;;
37791;SDS011;29527;55.766;37.570;2023-04-25T09:45:46;17.83;;;5.60;;
37791;SDS011;29527;55.766;37.570;2023-04-25T09:48:18;10.77;;;6.10;;
37791;SDS011;29527;55.766;37.570;2023-04-25T09:50:46;11.98;;;6.30;;
37791;SDS011;29527;55.766;37.570;2023-04-25T09:53:28;11.55;;;5.35;;
37791;SDS011;29527;55.766;37.570;2023-04-25T09:55:55;9.27;;;6.13;;
37791;SDS011;29527;55.766;37.570;2023-04-25T09:58:21;11.65;;;6.70;;
37791;SDS011;29527;55.766;37.570;2023-04-25T10:00:52;13.40;;;6.30;;
37791;SDS011;29527;55.766;37.570;2023-04-25T10:03:20;9.70;;;5.63;;
37791;SDS011;29527;55.766;37.570;2023-04-25T10:05:49;11.45;;;6.13;;
37791;SDS011;29527;55.766;37.570;2023-04-25T10:08:17;11.65;;;6.78;;
37791;SDS011;29527;55.766;37.570;2023-04-25T10:10:44;10.50;;;6.70;;
37791;SDS011;29527;55.766;37.570;2023-04-25T10:13:13;9.60;;;6.60;;
37791;SDS011;29527;55.766;37.570;2023-04-25T10:15:39;12.30;;;6.45;;
37791;SDS011;29527;55.766;37.570;2023-04-25T10:18:06;15.95;;;6.70;;
37791;SDS011;29527;55.766;37.570;2023-04-25T10:20:32;13.82;;;6.63;;
37791;SDS011;29527;55.766;37.570;2023-04-25T10:22:59;14.95;;;6.57;;
37791;SDS011;29527;55.766;37.570;2023-04-25T10:25:33;10.32;;;5.65;;
37791;SDS011;29527;55.766;37.570;2023-04-25T10:27:59;10.85;;;5.80;;
37791;SDS011;29527;55.766;37.570;2023-04-25T10:30:27;12.13;;;5.65;;
37791;SDS011;29527;55.766;37.570;2023-04-25T10:32:52;11.75;;;5.22;;
37791;SDS011;29527;55.766;37.570;2023-04-25T10:35:26;10.25;;;4.40;;
37791;SDS011;29527;55.766;37.570;2023-04-25T10:40:29;13.60;;;4.13;;
37791;SDS011;29527;55.766;37.570;2023-04-25T10:42:55;5.88;;;3.80;;
37791;SDS011;29527;55.766;37.570;2023-04-25T10:45:21;9.60;;;3.42;;
37791;SDS011;29527;55.766;37.570;2023-04-25T10:47:47;6.53;;;3.95;;
37791;SDS011;29527;55.766;37.570;2023-04-25T10:50:16;6.78;;;3.25;;
37791;SDS011;29527;55.766;37.570;2023-04-25T10:52:41;5.32;;;3.15;;
37791;SDS011;29527;55.766;37.570;2023-04-25T10:55:07;3.25;;;2.80;;
37791;SDS011;29527;55.766;37.570;2023-04-25T10:57:37;4.95;;;3.00;;
37791;SDS011;29527;55.766;37.570;2023-04-25T11:00:07;5.97;;;3.38;;
37791;SDS011;29527;55.766;37.570;2023-04-25T11:02:45;7.35;;;3.65;;
37791;SDS011;29527;55.766;37.570;2023-04-25T11:08:00;7.45;;;3.60;;
37791;SDS011;29527;55.766;37.570;2023-04-25T11:10:26;8.23;;;3.38;;
37791;SDS011;29527;55.766;37.570;2023-04-25T11:12:53;5.25;;;3.40;;
37791;SDS011;29527;55.766;37.570;2023-04-25T11:15:19;4.40;;;2.80;;
37791;SDS011;29527;55.766;37.570;2023-04-25T11:17:44;6.38;;;3.33;;
37791;SDS011;29527;55.766;37.570;2023-04-25T11:20:11;7.18;;;2.90;;
37791;SDS011;29527;55.766;37.570;2023-04-25T11:22:38;9.70;;;3.78;;
37791;SDS011;29527;55.766;37.570;2023-04-25T11:25:06;6.05;;;3.20;;
37791;SDS011;29527;55.766;37.570;2023-04-25T11:27:33;7.28;;;3.65;;
37791;SDS011;29527;55.766;37.570;2023-04-25T11:30:12;13.25;;;3.90;;
37791;SDS011;29527;55.766;37.570;2023-04-25T11:32:40;8.43;;;3.65;;
37791;SDS011;29527;55.766;37.570;2023-04-25T11:35:07;6.55;;;3.95;;
37791;SDS011;29527;55.766;37.570;2023-04-25T11:37:32;7.35;;;3.55;;
37791;SDS011;29527;55.766;37.570;2023-04-25T11:39:59;7.68;;;3.60;;
37791;SDS011;29527;55.766;37.570;2023-04-25T11:42:25;9.40;;;3.40;;
37791;SDS011;29527;55.766;37.570;2023-04-25T11:44:51;9.18;;;3.50;;
37791;SDS011;29527;55.766;37.570;2023-04-25T11:47:17;6.50;;;3.67;;
37791;SDS011;29527;55.766;37.570;2023-04-25T11:49:42;8.70;;;3.17;;
37791;SDS011;29527;55.766;37.570;2023-04-25T11:52:08;13.23;;;3.72;;
37791;SDS011;29527;55.766;37.570;2023-04-25T11:54:37;7.38;;;3.60;;
37791;SDS011;29527;55.766;37.570;2023-04-25T11:57:03;9.88;;;4.03;;
37791;SDS011;29527;55.766;37.570;2023-04-25T11:59:29;10.55;;;3.30;;
37791;SDS011;29527;55.766;37.570;2023-04-25T12:01:55;6.43;;;2.88;;
37791;SDS011;29527;55.766;37.570;2023-04-25T12:04:21;9.48;;;3.50;;
37791;SDS011;29527;55.766;37.570;2023-04-25T12:06:52;9.25;;;3.22;;
37791;SDS011;29527;55.766;37.570;2023-04-25T12:09:19;9.75;;;3.20;;
37791;SDS011;29527;55.766;37.570;2023-04-25T12:11:47;9.05;;;3.65;;
37791;SDS011;29527;55.766;37.570;2023-04-25T12:14:24;6.00;;;3.25;;
37791;SDS011;29527;55.766;37.570;2023-04-25T12:16:52;6.50;;;3.20;;
37791;SDS011;29527;55.766;37.570;2023-04-25T12:19:19;5.88;;;3.40;;
37791;SDS011;29527;55.766;37.570;2023-04-25T12:21:45;6.95;;;3.70;;
37791;SDS011;29527;55.766;37.570;2023-04-25T12:24:12;9.82;;;3.65;;
37791;SDS011;29527;55.766;37.570;2023-04-25T12:26:50;6.93;;;3.20;;
37791;SDS011;29527;55.766;37.570;2023-04-25T12:29:18;7.20;;;3.92;;
37791;SDS011;29527;55.766;37.570;2023-04-25T12:31:47;11.18;;;3.63;;
37791;SDS011;29527;55.766;37.570;2023-04-25T12:34:13;12.45;;;3.60;;
37791;SDS011;29527;55.766;37.570;2023-04-25T12:36:38;9.63;;;3.63;;
37791;SDS011;29527;55.766;37.570;2023-04-25T12:39:04;12.40;;;3.92;;
37791;SDS011;29527;55.766;37.570;2023-04-25T12:41:30;10.27;;;3.20;;
37791;SDS011;29527;55.766;37.570;2023-04-25T12:43:56;8.05;;;3.08;;
37791;SDS011;29527;55.766;37.570;2023-04-25T12:46:21;5.40;;;2.97;;
37791;SDS011;29527;55.766;37.570;2023-04-25T12:48:48;7.30;;;3.63;;
37791;SDS011;29527;55.766;37.570;2023-04-25T12:51:14;6.18;;;3.63;;
37791;SDS011;29527;55.766;37.570;2023-04-25T12:53:40;8.68;;;3.22;;
37791;SDS011;29527;55.766;37.570;2023-04-25T12:56:06;8.35;;;3.38;;
37791;SDS011;29527;55.766;37.570;2023-04-25T12:58:33;8.07;;;3.58;;
37791;SDS011;29527;55.766;37.570;2023-04-25T13:00:59;7.28;;;3.40;;
37791;SDS011;29527;55.766;37.570;2023-04-25T13:03:24;5.47;;;2.90;;
37791;SDS011;29527;55.766;37.570;2023-04-25T13:05:50;8.55;;;2.90;;
37791;SDS011;29527;55.766;37.570;2023-04-25T13:08:18;11.60;;;3.47;;
37791;SDS011;29527;55.766;37.570;2023-04-25T13:10:44;14.55;;;3.22;;
37791;SDS011;29527;55.766;37.570;2023-04-25T13:13:10;7.05;;;2.90;;
37791;SDS011;29527;55.766;37.570;2023-04-25T13:15:35;9.23;;;3.65;;
37791;SDS011;29527;55.766;37.570;2023-04-25T13:18:02;6.63;;;3.30;;
37791;SDS011;29527;55.766;37.570;2023-04-25T13:20:30;10.90;;;3.28;;
37791;SDS011;29527;55.766;37.570;2023-04-25T13:22:56;5.63;;;3.33;;
37791;SDS011;29527;55.766;37.570;2023-04-25T13:25:22;10.63;;;3.38;;
37791;SDS011;29527;55.766;37.570;2023-04-25T13:27:47;8.55;;;3.35;;
37791;SDS011;29527;55.766;37.570;2023-04-25T13:30:13;7.22;;;3.70;;
37791;SDS011;29527;55.766;37.570;2023-04-25T13:32:39;9.40;;;3.90;;
37791;SDS011;29527;55.766;37.570;2023-04-25T13:35:09;12.10;;;3.67;;
37791;SDS011;29527;55.766;37.570;2023-04-25T13:37:36;7.10;;;3.70;;
37791;SDS011;29527;55.766;37.570;2023-04-25T13:40:09;9.48;;;3.35;;
37791;SDS011;29527;55.766;37.570;2023-04-25T13:42:36;13.52;;;4.07;;
37791;SDS011;29527;55.766;37.570;2023-04-25T13:45:03;7.43;;;3.60;;
37791;SDS011;29527;55.766;37.570;2023-04-25T13:47:33;6.90;;;3.47;;
37791;SDS011;29527;55.766;37.570;2023-04-25T13:50:00;12.40;;;3.92;;
37791;SDS011;29527;55.766;37.570;2023-04-25T13:52:30;8.77;;;4.10;;
37791;SDS011;29527;55.766;37.570;2023-04-25T13:54:56;11.77;;;3.67;;
37791;SDS011;29527;55.766;37.570;2023-04-25T13:57:22;7.75;;;3.70;;
37791;SDS011;29527;55.766;37.570;2023-04-25T13:59:48;6.22;;;3.50;;
37791;SDS011;29527;55.766;37.570;2023-04-25T14:02:14;12.43;;;3.60;;
37791;SDS011;29527;55.766;37.570;2023-04-25T14:04:40;8.93;;;3.47;;
37791;SDS011;29527;55.766;37.570;2023-04-25T14:07:06;6.90;;;3.65;;
37791;SDS011;29527;55.766;37.570;2023-04-25T14:09:31;7.15;;;4.05;;
37791;SDS011;29527;55.766;37.570;2023-04-25T14:11:57;7.53;;;3.65;;
37791;SDS011;29527;55.766;37.570;2023-04-25T14:14:23;8.73;;;3.45;;
37791;SDS011;29527;55.766;37.570;2023-04-25T14:16:49;6.72;;;3.20;;
37791;SDS011;29527;55.766;37.570;2023-04-25T14:19:18;6.72;;;3.00;;
37791;SDS011;29527;55.766;37.570;2023-04-25T14:21:45;8.30;;;3.78;;
37791;SDS011;29527;55.766;37.570;2023-04-25T14:24:11;6.15;;;2.90;;
37791;SDS011;29527;55.766;37.570;2023-04-25T14:26:38;10.10;;;2.95;;
37791;SDS011;29527;55.766;37.570;2023-04-25T14:29:04;7.93;;;3.33;;
37791;SDS011;29527;55.766;37.570;2023-04-25T14:31:32;4.47;;;3.40;;
37791;SDS011;29527;55.766;37.570;2023-04-25T14:33:57;5.95;;;3.38;;